sensor_id;sensor_type;location;lat;lon;timestamp;P1;durP1;ratioP1;P2;durP2;ratioP2
14760;SDS011;7472;45.396;5.272;2023-08-24T00:00:49;8.10;;;2.88;;
14760;SDS011;7472;45.396;5.272;2023-08-24T00:03:17;6.35;;;3.38;;
14760;SDS011;7472;45.396;5.272;2023-08-24T00:05:47;8.10;;;3.45;;
14760;SDS011;7472;45.396;5.272;2023-08-24T00:08:14;5.68;;;3.08;;
14760;SDS011;7472;45.396;5.272;2023-08-24T00:10:44;8.73;;;3.45;;
14760;SDS011;7472;45.396;5.272;2023-08-24T00:13:12;9.85;;;3.42;;
14760;SDS011;7472;45.396;5.272;2023-08-24T00:15:39;7.43;;;3.65;;
14760;SDS011;7472;45.396;5.272;2023-08-24T00:18:06;8.50;;;3.00;;
14760;SDS011;7472;45.396;5.272;2023-08-24T00:20:34;8.50;;;3.17;;
14760;SDS011;7472;45.396;5.272;2023-08-24T00:23:02;6.90;;;3.05;;
14760;SDS011;7472;45.396;5.272;2023-08-24T00:25:30;8.27;;;3.55;;
14760;SDS011;7472;45.396;5.272;2023-08-24T00:27:58;8.40;;;3.33;;
14760;SDS011;7472;45.396;5.272;2023-08-24T00:30:26;7.78;;;3.40;;
14760;SDS011;7472;45.396;5.272;2023-08-24T00:32:53;10.80;;;3.42;;
14760;SDS011;7472;45.396;5.272;2023-08-24T00:35:21;11.70;;;3.67;;
14760;SDS011;7472;45.396;5.272;2023-08-24T00:37:48;7.53;;;2.97;;
14760;SDS011;7472;45.396;5.272;2023-08-24T00:40:15;10.07;;;3.35;;
14760;SDS011;7472;45.396;5.272;2023-08-24T00:42:44;7.57;;;3.45;;
14760;SDS011;7472;45.396;5.272;2023-08-24T00:45:13;8.52;;;3.25;;
14760;SDS011;7472;45.396;5.272;2023-08-24T00:47:41;10.02;;;3.30;;
14760;SDS011;7472;45.396;5.272;2023-08-24T00:50:09;8.02;;;3.05;;
14760;SDS011;7472;45.396;5.272;2023-08-24T00:52:38;6.50;;;2.70;;
14760;SDS011;7472;45.396;5.272;2023-08-24T00:55:06;9.93;;;3.20;;
14760;SDS011;7472;45.396;5.272;2023-08-24T00:57:34;11.27;;;3.35;;
14760;SDS011;7472;45.396;5.272;2023-08-24T01:00:03;10.65;;;3.78;;
14760;SDS011;7472;45.396;5.272;2023-08-24T01:02:34;7.65;;;3.08;;
14760;SDS011;7472;45.396;5.272;2023-08-24T01:05:02;8.32;;;3.30;;
14760;SDS011;7472;45.396;5.272;2023-08-24T01:07:31;10.73;;;3.55;;
14760;SDS011;7472;45.396;5.272;2023-08-24T01:09:58;4.47;;;3.13;;
14760;SDS011;7472;45.396;5.272;2023-08-24T01:12:28;15.48;;;4.10;;
14760;SDS011;7472;45.396;5.272;2023-08-24T01:14:59;10.23;;;3.28;;
14760;SDS011;7472;45.396;5.272;2023-08-24T01:17:31;7.75;;;3.20;;
14760;SDS011;7472;45.396;5.272;2023-08-24T01:20:01;9.35;;;3.83;;
14760;SDS011;7472;45.396;5.272;2023-08-24T01:22:32;10.25;;;3.40;;
14760;SDS011;7472;45.396;5.272;2023-08-24T01:25:01;10.00;;;3.50;;
14760;SDS011;7472;45.396;5.272;2023-08-24T01:27:34;11.80;;;3.30;;
14760;SDS011;7472;45.396;5.272;2023-08-24T01:30:02;9.68;;;3.13;;
14760;SDS011;7472;45.396;5.272;2023-08-24T01:32:30;5.50;;;3.40;;
14760;SDS011;7472;45.396;5.272;2023-08-24T01:34:58;11.85;;;3.28;;
14760;SDS011;7472;45.396;5.272;2023-08-24T01:37:25;9.38;;;3.67;;
14760;SDS011;7472;45.396;5.272;2023-08-24T01:40:00;7.80;;;3.20;;
14760;SDS011;7472;45.396;5.272;2023-08-24T01:42:31;12.55;;;3.78;;
14760;SDS011;7472;45.396;5.272;2023-08-24T01:45:03;14.15;;;3.20;;
14760;SDS011;7472;45.396;5.272;2023-08-24T01:47:32;9.30;;;3.45;;
14760;SDS011;7472;45.396;5.272;2023-08-24T01:50:00;9.57;;;3.80;;
14760;SDS011;7472;45.396;5.272;2023-08-24T01:52:29;7.60;;;3.05;;
14760;SDS011;7472;45.396;5.272;2023-08-24T01:54:56;6.72;;;3.15;;
14760;SDS011;7472;45.396;5.272;2023-08-24T01:57:24;9.57;;;3.67;;
14760;SDS011;7472;45.396;5.272;2023-08-24T01:59:51;10.52;;;3.40;;
14760;SDS011;7472;45.396;5.272;2023-08-24T02:02:20;8.25;;;3.60;;
14760;SDS011;7472;45.396;5.272;2023-08-24T02:04:47;6.63;;;3.22;;
14760;SDS011;7472;45.396;5.272;2023-08-24T02:07:15;11.10;;;3.40;;
14760;SDS011;7472;45.396;5.272;2023-08-24T02:09:42;9.98;;;3.78;;
14760;SDS011;7472;45.396;5.272;2023-08-24T02:12:09;11.07;;;3.88;;
14760;SDS011;7472;45.396;5.272;2023-08-24T02:14:37;10.57;;;3.85;;
14760;SDS011;7472;45.396;5.272;2023-08-24T02:17:04;10.65;;;3.63;;
14760;SDS011;7472;45.396;5.272;2023-08-24T02:19:33;8.45;;;3.10;;
14760;SDS011;7472;45.396;5.272;2023-08-24T02:22:00;11.45;;;3.80;;
14760;SDS011;7472;45.396;5.272;2023-08-24T02:24:28;7.82;;;3.22;;
14760;SDS011;7472;45.396;5.272;2023-08-24T02:26:55;13.75;;;3.90;;
14760;SDS011;7472;45.396;5.272;2023-08-24T02:29:22;13.45;;;3.80;;
14760;SDS011;7472;45.396;5.272;2023-08-24T02:31:50;9.07;;;3.88;;
14760;SDS011;7472;45.396;5.272;2023-08-24T02:34:17;9.48;;;3.97;;
14760;SDS011;7472;45.396;5.272;2023-08-24T02:36:46;8.77;;;3.65;;
14760;SDS011;7472;45.396;5.272;2023-08-24T02:39:13;6.35;;;2.78;;
14760;SDS011;7472;45.396;5.272;2023-08-24T02:41:41;8.25;;;3.75;;
14760;SDS011;7472;45.396;5.272;2023-08-24T02:44:08;12.25;;;3.85;;
14760;SDS011;7472;45.396;5.272;2023-08-24T02:46:36;9.48;;;3.53;;
14760;SDS011;7472;45.396;5.272;2023-08-24T02:49:03;9.57;;;3.40;;
14760;SDS011;7472;45.396;5.272;2023-08-24T02:51:30;11.32;;;3.53;;
14760;SDS011;7472;45.396;5.272;2023-08-24T02:53:59;12.00;;;3.83;;
14760;SDS011;7472;45.396;5.272;2023-08-24T02:56:26;8.43;;;3.40;;
14760;SDS011;7472;45.396;5.272;2023-08-24T02:58:54;7.15;;;3.33;;
14760;SDS011;7472;45.396;5.272;2023-08-24T03:01:21;6.22;;;3.67;;
14760;SDS011;7472;45.396;5.272;2023-08-24T03:03:48;7.82;;;3.55;;
14760;SDS011;7472;45.396;5.272;2023-08-24T03:06:16;6.78;;;3.45;;
14760;SDS011;7472;45.396;5.272;2023-08-24T03:08:43;5.30;;;3.72;;
14760;SDS011;7472;45.396;5.272;2023-08-24T03:11:12;7.20;;;3.67;;
14760;SDS011;7472;45.396;5.272;2023-08-24T03:13:39;8.77;;;4.07;;
14760;SDS011;7472;45.396;5.272;2023-08-24T03:16:07;11.23;;;4.22;;
14760;SDS011;7472;45.396;5.272;2023-08-24T03:18:35;8.45;;;3.97;;
14760;SDS011;7472;45.396;5.272;2023-08-24T03:21:03;11.25;;;4.60;;
14760;SDS011;7472;45.396;5.272;2023-08-24T03:23:30;8.18;;;3.95;;
14760;SDS011;7472;45.396;5.272;2023-08-24T03:25:57;11.07;;;4.47;;
14760;SDS011;7472;45.396;5.272;2023-08-24T03:28:26;13.38;;;4.55;;
14760;SDS011;7472;45.396;5.272;2023-08-24T03:30:54;12.35;;;4.50;;
14760;SDS011;7472;45.396;5.272;2023-08-24T03:33:22;10.68;;;3.97;;
14760;SDS011;7472;45.396;5.272;2023-08-24T03:35:49;9.65;;;4.28;;
14760;SDS011;7472;45.396;5.272;2023-08-24T03:38:16;9.80;;;4.80;;
14760;SDS011;7472;45.396;5.272;2023-08-24T03:40:44;9.93;;;3.55;;
14760;SDS011;7472;45.396;5.272;2023-08-24T03:43:11;8.20;;;4.40;;
14760;SDS011;7472;45.396;5.272;2023-08-24T03:45:40;12.32;;;3.90;;
14760;SDS011;7472;45.396;5.272;2023-08-24T03:48:09;6.47;;;4.18;;
14760;SDS011;7472;45.396;5.272;2023-08-24T03:50:36;8.30;;;4.20;;
14760;SDS011;7472;45.396;5.272;2023-08-24T03:53:04;8.85;;;4.63;;
14760;SDS011;7472;45.396;5.272;2023-08-24T03:55:31;9.52;;;4.63;;
14760;SDS011;7472;45.396;5.272;2023-08-24T03:57:59;10.18;;;4.45;;
14760;SDS011;7472;45.396;5.272;2023-08-24T04:00:26;8.35;;;4.45;;
14760;SDS011;7472;45.396;5.272;2023-08-24T04:02:55;9.35;;;4.25;;
14760;SDS011;7472;45.396;5.272;2023-08-24T04:05:23;10.90;;;4.20;;
14760;SDS011;7472;45.396;5.272;2023-08-24T04:07:51;10.07;;;3.60;;
14760;SDS011;7472;45.396;5.272;2023-08-24T04:10:18;8.25;;;4.35;;
14760;SDS011;7472;45.396;5.272;2023-08-24T04:12:45;7.38;;;3.78;;
14760;SDS011;7472;45.396;5.272;2023-08-24T04:15:13;10.50;;;4.22;;
14760;SDS011;7472;45.396;5.272;2023-08-24T04:17:40;9.35;;;4.28;;
14760;SDS011;7472;45.396;5.272;2023-08-24T04:20:10;9.52;;;3.83;;
14760;SDS011;7472;45.396;5.272;2023-08-24T04:22:37;10.38;;;4.47;;
14760;SDS011;7472;45.396;5.272;2023-08-24T04:25:05;12.20;;;4.40;;
14760;SDS011;7472;45.396;5.272;2023-08-24T04:27:32;11.88;;;4.30;;
14760;SDS011;7472;45.396;5.272;2023-08-24T04:29:59;6.93;;;4.18;;
14760;SDS011;7472;45.396;5.272;2023-08-24T04:32:28;10.32;;;4.00;;
14760;SDS011;7472;45.396;5.272;2023-08-24T04:34:55;10.35;;;4.55;;
14760;SDS011;7472;45.396;5.272;2023-08-24T04:37:24;8.25;;;4.97;;
14760;SDS011;7472;45.396;5.272;2023-08-24T04:39:51;7.40;;;4.22;;
14760;SDS011;7472;45.396;5.272;2023-08-24T04:42:19;8.82;;;4.53;;
14760;SDS011;7472;45.396;5.272;2023-08-24T04:44:46;8.00;;;4.32;;
14760;SDS011;7472;45.396;5.272;2023-08-24T04:47:14;12.98;;;5.20;;
14760;SDS011;7472;45.396;5.272;2023-08-24T04:49:41;12.82;;;4.38;;
14760;SDS011;7472;45.396;5.272;2023-08-24T04:52:08;9.38;;;4.68;;
14760;SDS011;7472;45.396;5.272;2023-08-24T04:54:37;8.05;;;4.32;;
14760;SDS011;7472;45.396;5.272;2023-08-24T04:57:05;9.90;;;4.38;;
14760;SDS011;7472;45.396;5.272;2023-08-24T04:59:33;9.35;;;3.63;;
14760;SDS011;7472;45.396;5.272;2023-08-24T05:02:00;7.22;;;4.53;;
14760;SDS011;7472;45.396;5.272;2023-08-24T05:04:27;9.27;;;3.92;;
14760;SDS011;7472;45.396;5.272;2023-08-24T05:06:55;8.80;;;3.60;;
14760;SDS011;7472;45.396;5.272;2023-08-24T05:09:22;13.00;;;4.10;;
14760;SDS011;7472;45.396;5.272;2023-08-24T05:11:51;13.68;;;4.53;;
14760;SDS011;7472;45.396;5.272;2023-08-24T05:14:18;9.27;;;4.43;;
14760;SDS011;7472;45.396;5.272;2023-08-24T05:16:46;10.25;;;4.93;;
14760;SDS011;7472;45.396;5.272;2023-08-24T05:19:13;9.05;;;4.00;;
14760;SDS011;7472;45.396;5.272;2023-08-24T05:21:40;7.57;;;4.13;;
14760;SDS011;7472;45.396;5.272;2023-08-24T05:24:08;8.90;;;4.32;;
14760;SDS011;7472;45.396;5.272;2023-08-24T05:26:35;8.77;;;4.15;;
14760;SDS011;7472;45.396;5.272;2023-08-24T05:29:04;12.85;;;4.45;;
14760;SDS011;7472;45.396;5.272;2023-08-24T05:31:31;8.85;;;4.05;;
14760;SDS011;7472;45.396;5.272;2023-08-24T05:33:59;6.03;;;3.70;;
14760;SDS011;7472;45.396;5.272;2023-08-24T05:36:26;7.25;;;4.25;;
14760;SDS011;7472;45.396;5.272;2023-08-24T05:38:53;9.40;;;4.32;;
14760;SDS011;7472;45.396;5.272;2023-08-24T05:41:21;9.73;;;4.40;;
14760;SDS011;7472;45.396;5.272;2023-08-24T05:43:49;9.90;;;4.50;;
14760;SDS011;7472;45.396;5.272;2023-08-24T05:46:19;9.25;;;4.32;;
14760;SDS011;7472;45.396;5.272;2023-08-24T05:48:46;7.65;;;4.22;;
14760;SDS011;7472;45.396;5.272;2023-08-24T05:51:14;14.13;;;4.60;;
14760;SDS011;7472;45.396;5.272;2023-08-24T05:53:41;7.78;;;4.03;;
14760;SDS011;7472;45.396;5.272;2023-08-24T05:56:09;8.38;;;4.20;;
14760;SDS011;7472;45.396;5.272;2023-08-24T05:58:36;8.50;;;3.95;;
14760;SDS011;7472;45.396;5.272;2023-08-24T06:01:04;8.63;;;3.67;;
14760;SDS011;7472;45.396;5.272;2023-08-24T06:03:33;6.75;;;3.88;;
14760;SDS011;7472;45.396;5.272;2023-08-24T06:06:01;8.05;;;4.00;;
14760;SDS011;7472;45.396;5.272;2023-08-24T06:08:29;11.18;;;4.70;;
14760;SDS011;7472;45.396;5.272;2023-08-24T06:10:56;12.10;;;4.63;;
14760;SDS011;7472;45.396;5.272;2023-08-24T06:13:24;7.70;;;4.30;;
14760;SDS011;7472;45.396;5.272;2023-08-24T06:15:52;10.07;;;3.55;;
14760;SDS011;7472;45.396;5.272;2023-08-24T06:18:19;8.10;;;4.20;;
14760;SDS011;7472;45.396;5.272;2023-08-24T06:20:48;6.82;;;4.22;;
14760;SDS011;7472;45.396;5.272;2023-08-24T06:23:16;9.00;;;4.35;;
14760;SDS011;7472;45.396;5.272;2023-08-24T06:25:43;9.65;;;3.97;;
14760;SDS011;7472;45.396;5.272;2023-08-24T06:28:11;11.57;;;4.50;;
14760;SDS011;7472;45.396;5.272;2023-08-24T06:30:38;9.00;;;4.70;;
14760;SDS011;7472;45.396;5.272;2023-08-24T06:33:06;14.32;;;4.78;;
14760;SDS011;7472;45.396;5.272;2023-08-24T06:35:34;14.85;;;5.38;;
14760;SDS011;7472;45.396;5.272;2023-08-24T06:38:03;11.68;;;5.88;;
14760;SDS011;7472;45.396;5.272;2023-08-24T06:40:31;13.35;;;5.47;;
14760;SDS011;7472;45.396;5.272;2023-08-24T06:42:58;9.73;;;5.07;;
14760;SDS011;7472;45.396;5.272;2023-08-24T06:45:25;13.25;;;5.30;;
14760;SDS011;7472;45.396;5.272;2023-08-24T06:47:53;17.42;;;5.40;;
14760;SDS011;7472;45.396;5.272;2023-08-24T06:50:20;13.40;;;5.80;;
14760;SDS011;7472;45.396;5.272;2023-08-24T06:52:47;13.10;;;5.00;;
14760;SDS011;7472;45.396;5.272;2023-08-24T06:55:16;11.88;;;5.22;;
14760;SDS011;7472;45.396;5.272;2023-08-24T06:57:47;12.80;;;5.53;;
14760;SDS011;7472;45.396;5.272;2023-08-24T07:00:16;12.60;;;5.45;;
14760;SDS011;7472;45.396;5.272;2023-08-24T07:02:44;9.20;;;4.97;;
14760;SDS011;7472;45.396;5.272;2023-08-24T07:05:12;11.50;;;5.50;;
14760;SDS011;7472;45.396;5.272;2023-08-24T07:07:39;10.70;;;4.97;;
14760;SDS011;7472;45.396;5.272;2023-08-24T07:10:08;9.73;;;5.72;;
14760;SDS011;7472;45.396;5.272;2023-08-24T07:12:37;10.23;;;4.85;;
14760;SDS011;7472;45.396;5.272;2023-08-24T07:15:06;15.05;;;5.00;;
14760;SDS011;7472;45.396;5.272;2023-08-24T07:17:33;8.77;;;5.15;;
14760;SDS011;7472;45.396;5.272;2023-08-24T07:20:02;16.45;;;5.65;;
14760;SDS011;7472;45.396;5.272;2023-08-24T07:22:31;8.13;;;4.97;;
14760;SDS011;7472;45.396;5.272;2023-08-24T07:24:58;14.60;;;5.75;;
14760;SDS011;7472;45.396;5.272;2023-08-24T07:27:25;10.00;;;4.72;;
14760;SDS011;7472;45.396;5.272;2023-08-24T07:29:55;7.47;;;4.95;;
14760;SDS011;7472;45.396;5.272;2023-08-24T07:32:22;9.77;;;4.88;;
14760;SDS011;7472;45.396;5.272;2023-08-24T07:34:50;10.57;;;5.13;;
14760;SDS011;7472;45.396;5.272;2023-08-24T07:37:17;12.20;;;5.10;;
14760;SDS011;7472;45.396;5.272;2023-08-24T07:39:44;7.97;;;4.93;;
14760;SDS011;7472;45.396;5.272;2023-08-24T07:42:12;14.57;;;5.18;;
14760;SDS011;7472;45.396;5.272;2023-08-24T07:44:39;7.90;;;4.38;;
14760;SDS011;7472;45.396;5.272;2023-08-24T07:47:08;7.68;;;4.53;;
14760;SDS011;7472;45.396;5.272;2023-08-24T07:49:35;11.27;;;4.32;;
14760;SDS011;7472;45.396;5.272;2023-08-24T07:52:08;12.05;;;4.78;;
14760;SDS011;7472;45.396;5.272;2023-08-24T07:54:36;6.47;;;4.55;;
14760;SDS011;7472;45.396;5.272;2023-08-24T07:57:04;10.23;;;4.85;;
14760;SDS011;7472;45.396;5.272;2023-08-24T07:59:31;12.45;;;5.03;;
14760;SDS011;7472;45.396;5.272;2023-08-24T08:01:59;8.77;;;3.83;;
14760;SDS011;7472;45.396;5.272;2023-08-24T08:04:27;13.73;;;4.95;;
14760;SDS011;7472;45.396;5.272;2023-08-24T08:06:55;7.32;;;4.40;;
14760;SDS011;7472;45.396;5.272;2023-08-24T08:09:22;12.70;;;4.03;;
14760;SDS011;7472;45.396;5.272;2023-08-24T08:11:49;9.77;;;4.35;;
14760;SDS011;7472;45.396;5.272;2023-08-24T08:14:17;13.00;;;4.65;;
14760;SDS011;7472;45.396;5.272;2023-08-24T08:16:45;14.52;;;4.90;;
14760;SDS011;7472;45.396;5.272;2023-08-24T08:19:12;20.92;;;5.22;;
14760;SDS011;7472;45.396;5.272;2023-08-24T08:21:41;14.10;;;4.35;;
14760;SDS011;7472;45.396;5.272;2023-08-24T08:24:08;13.98;;;4.22;;
14760;SDS011;7472;45.396;5.272;2023-08-24T08:26:36;8.50;;;4.47;;
14760;SDS011;7472;45.396;5.272;2023-08-24T08:29:03;15.50;;;4.72;;
14760;SDS011;7472;45.396;5.272;2023-08-24T08:31:31;12.30;;;3.95;;
14760;SDS011;7472;45.396;5.272;2023-08-24T08:33:58;15.68;;;4.85;;
14760;SDS011;7472;45.396;5.272;2023-08-24T08:36:25;14.75;;;4.55;;
14760;SDS011;7472;45.396;5.272;2023-08-24T08:38:54;8.05;;;4.07;;
14760;SDS011;7472;45.396;5.272;2023-08-24T08:41:22;12.32;;;3.53;;
14760;SDS011;7472;45.396;5.272;2023-08-24T08:43:49;7.93;;;3.95;;
14760;SDS011;7472;45.396;5.272;2023-08-24T08:46:17;7.78;;;3.85;;
14760;SDS011;7472;45.396;5.272;2023-08-24T08:48:45;11.27;;;4.60;;
14760;SDS011;7472;45.396;5.272;2023-08-24T08:51:12;5.80;;;3.80;;
14760;SDS011;7472;45.396;5.272;2023-08-24T08:53:40;9.93;;;3.40;;
14760;SDS011;7472;45.396;5.272;2023-08-24T08:56:09;7.03;;;3.80;;
14760;SDS011;7472;45.396;5.272;2023-08-24T08:58:37;7.00;;;3.50;;
14760;SDS011;7472;45.396;5.272;2023-08-24T09:01:05;6.00;;;3.50;;
14760;SDS011;7472;45.396;5.272;2023-08-24T09:03:32;9.93;;;3.25;;
14760;SDS011;7472;45.396;5.272;2023-08-24T09:06:01;10.68;;;4.20;;
14760;SDS011;7472;45.396;5.272;2023-08-24T09:08:29;6.00;;;3.10;;
14760;SDS011;7472;45.396;5.272;2023-08-24T09:10:58;10.25;;;3.38;;
14760;SDS011;7472;45.396;5.272;2023-08-24T09:13:27;9.45;;;3.95;;
14760;SDS011;7472;45.396;5.272;2023-08-24T09:15:55;10.15;;;4.00;;
14760;SDS011;7472;45.396;5.272;2023-08-24T09:18:33;10.95;;;4.13;;
14760;SDS011;7472;45.396;5.272;2023-08-24T09:21:07;10.38;;;3.95;;
14760;SDS011;7472;45.396;5.272;2023-08-24T09:23:35;9.15;;;3.80;;
14760;SDS011;7472;45.396;5.272;2023-08-24T09:26:02;7.85;;;3.65;;
14760;SDS011;7472;45.396;5.272;2023-08-24T09:28:31;5.90;;;3.60;;
14760;SDS011;7472;45.396;5.272;2023-08-24T09:30:59;7.43;;;4.05;;
14760;SDS011;7472;45.396;5.272;2023-08-24T09:33:28;5.60;;;3.78;;
14760;SDS011;7472;45.396;5.272;2023-08-24T09:35:56;11.52;;;3.35;;
14760;SDS011;7472;45.396;5.272;2023-08-24T09:38:26;7.63;;;3.65;;
14760;SDS011;7472;45.396;5.272;2023-08-24T09:40:54;6.95;;;3.30;;
14760;SDS011;7472;45.396;5.272;2023-08-24T09:43:22;11.00;;;3.63;;
14760;SDS011;7472;45.396;5.272;2023-08-24T09:45:52;5.75;;;3.10;;
14760;SDS011;7472;45.396;5.272;2023-08-24T09:48:20;8.60;;;3.95;;
14760;SDS011;7472;45.396;5.272;2023-08-24T09:50:49;6.65;;;3.50;;
14760;SDS011;7472;45.396;5.272;2023-08-24T09:53:18;9.02;;;3.75;;
14760;SDS011;7472;45.396;5.272;2023-08-24T09:55:48;9.30;;;3.60;;
14760;SDS011;7472;45.396;5.272;2023-08-24T09:58:16;6.75;;;3.28;;
14760;SDS011;7472;45.396;5.272;2023-08-24T10:00:45;8.15;;;4.05;;
14760;SDS011;7472;45.396;5.272;2023-08-24T10:03:15;5.38;;;3.50;;
14760;SDS011;7472;45.396;5.272;2023-08-24T10:05:45;9.43;;;3.60;;
14760;SDS011;7472;45.396;5.272;2023-08-24T10:08:13;8.38;;;3.70;;
14760;SDS011;7472;45.396;5.272;2023-08-24T10:10:41;10.18;;;3.85;;
14760;SDS011;7472;45.396;5.272;2023-08-24T10:13:12;10.18;;;3.25;;
14760;SDS011;7472;45.396;5.272;2023-08-24T10:15:41;10.75;;;3.78;;
14760;SDS011;7472;45.396;5.272;2023-08-24T10:18:11;4.28;;;3.45;;
14760;SDS011;7472;45.396;5.272;2023-08-24T10:20:41;7.47;;;3.08;;
14760;SDS011;7472;45.396;5.272;2023-08-24T10:23:09;10.00;;;3.10;;
14760;SDS011;7472;45.396;5.272;2023-08-24T10:25:37;8.73;;;4.32;;
14760;SDS011;7472;45.396;5.272;2023-08-24T10:28:07;9.80;;;3.38;;
14760;SDS011;7472;45.396;5.272;2023-08-24T10:30:34;10.50;;;4.10;;
14760;SDS011;7472;45.396;5.272;2023-08-24T10:33:03;7.20;;;3.42;;
14760;SDS011;7472;45.396;5.272;2023-08-24T10:35:31;9.63;;;4.22;;
14760;SDS011;7472;45.396;5.272;2023-08-24T10:38:00;9.13;;;3.38;;
14760;SDS011;7472;45.396;5.272;2023-08-24T10:40:31;7.50;;;3.53;;
14760;SDS011;7472;45.396;5.272;2023-08-24T10:43:02;5.43;;;3.47;;
14760;SDS011;7472;45.396;5.272;2023-08-24T10:48:12;7.38;;;3.22;;
14760;SDS011;7472;45.396;5.272;2023-08-24T10:50:40;8.85;;;3.58;;
14760;SDS011;7472;45.396;5.272;2023-08-24T10:53:09;7.10;;;3.05;;
14760;SDS011;7472;45.396;5.272;2023-08-24T10:55:36;6.18;;;2.95;;
14760;SDS011;7472;45.396;5.272;2023-08-24T10:58:04;5.13;;;3.60;;
14760;SDS011;7472;45.396;5.272;2023-08-24T11:00:32;4.55;;;3.40;;
14760;SDS011;7472;45.396;5.272;2023-08-24T11:02:59;7.97;;;3.10;;
14760;SDS011;7472;45.396;5.272;2023-08-24T11:05:27;4.68;;;3.20;;
14760;SDS011;7472;45.396;5.272;2023-08-24T11:07:56;5.75;;;3.15;;
14760;SDS011;7472;45.396;5.272;2023-08-24T11:10:31;4.80;;;3.05;;
14760;SDS011;7472;45.396;5.272;2023-08-24T11:13:11;7.40;;;3.03;;
14760;SDS011;7472;45.396;5.272;2023-08-24T11:15:39;5.97;;;3.08;;
14760;SDS011;7472;45.396;5.272;2023-08-24T11:18:13;5.47;;;3.28;;
14760;SDS011;7472;45.396;5.272;2023-08-24T11:20:42;8.40;;;3.17;;
14760;SDS011;7472;45.396;5.272;2023-08-24T11:23:09;5.38;;;3.38;;
14760;SDS011;7472;45.396;5.272;2023-08-24T11:25:38;7.35;;;3.60;;
14760;SDS011;7472;45.396;5.272;2023-08-24T11:28:06;4.35;;;3.40;;
14760;SDS011;7472;45.396;5.272;2023-08-24T11:30:33;7.40;;;3.72;;
14760;SDS011;7472;45.396;5.272;2023-08-24T11:33:01;4.15;;;2.97;;
14760;SDS011;7472;45.396;5.272;2023-08-24T11:35:29;4.30;;;3.28;;
14760;SDS011;7472;45.396;5.272;2023-08-24T11:38:02;9.20;;;3.20;;
14760;SDS011;7472;45.396;5.272;2023-08-24T11:40:30;4.82;;;3.08;;
14760;SDS011;7472;45.396;5.272;2023-08-24T11:42:58;5.88;;;3.40;;
14760;SDS011;7472;45.396;5.272;2023-08-24T11:45:29;11.45;;;3.70;;
14760;SDS011;7472;45.396;5.272;2023-08-24T11:47:57;6.57;;;3.72;;
14760;SDS011;7472;45.396;5.272;2023-08-24T11:50:26;6.78;;;3.80;;
14760;SDS011;7472;45.396;5.272;2023-08-24T11:52:53;7.60;;;3.40;;
14760;SDS011;7472;45.396;5.272;2023-08-24T11:55:21;7.95;;;3.03;;
14760;SDS011;7472;45.396;5.272;2023-08-24T11:57:48;4.43;;;3.10;;
14760;SDS011;7472;45.396;5.272;2023-08-24T12:00:18;3.92;;;3.20;;
14760;SDS011;7472;45.396;5.272;2023-08-24T12:02:46;8.43;;;3.38;;
14760;SDS011;7472;45.396;5.272;2023-08-24T12:05:20;8.93;;;3.30;;
14760;SDS011;7472;45.396;5.272;2023-08-24T12:07:48;4.70;;;3.50;;
14760;SDS011;7472;45.396;5.272;2023-08-24T12:10:15;4.55;;;3.40;;
14760;SDS011;7472;45.396;5.272;2023-08-24T12:12:43;3.78;;;3.47;;
14760;SDS011;7472;45.396;5.272;2023-08-24T12:15:15;3.33;;;3.03;;
14760;SDS011;7472;45.396;5.272;2023-08-24T12:17:44;3.20;;;2.95;;
14760;SDS011;7472;45.396;5.272;2023-08-24T12:20:18;8.63;;;3.25;;
14760;SDS011;7472;45.396;5.272;2023-08-24T12:22:50;6.82;;;3.10;;
14760;SDS011;7472;45.396;5.272;2023-08-24T12:25:17;6.90;;;3.20;;
14760;SDS011;7472;45.396;5.272;2023-08-24T12:27:45;4.28;;;3.40;;
14760;SDS011;7472;45.396;5.272;2023-08-24T12:30:12;7.07;;;2.90;;
14760;SDS011;7472;45.396;5.272;2023-08-24T12:32:42;3.72;;;3.08;;
14760;SDS011;7472;45.396;5.272;2023-08-24T12:35:14;3.20;;;2.95;;
14760;SDS011;7472;45.396;5.272;2023-08-24T12:37:42;6.90;;;3.30;;
14760;SDS011;7472;45.396;5.272;2023-08-24T12:40:09;6.90;;;3.78;;
14760;SDS011;7472;45.396;5.272;2023-08-24T12:42:37;3.85;;;3.10;;
14760;SDS011;7472;45.396;5.272;2023-08-24T12:45:04;5.88;;;2.88;;
14760;SDS011;7472;45.396;5.272;2023-08-24T12:47:32;6.55;;;3.92;;
14760;SDS011;7472;45.396;5.272;2023-08-24T12:50:03;6.75;;;3.60;;
14760;SDS011;7472;45.396;5.272;2023-08-24T12:52:32;9.45;;;3.78;;
14760;SDS011;7472;45.396;5.272;2023-08-24T12:55:00;4.80;;;3.72;;
14760;SDS011;7472;45.396;5.272;2023-08-24T12:57:28;8.43;;;3.45;;
14760;SDS011;7472;45.396;5.272;2023-08-24T12:59:55;4.03;;;3.67;;
14760;SDS011;7472;45.396;5.272;2023-08-24T13:02:23;7.00;;;3.42;;
14760;SDS011;7472;45.396;5.272;2023-08-24T13:04:50;4.43;;;3.40;;
14760;SDS011;7472;45.396;5.272;2023-08-24T13:07:18;6.18;;;3.90;;
14760;SDS011;7472;45.396;5.272;2023-08-24T13:09:47;8.68;;;3.35;;
14760;SDS011;7472;45.396;5.272;2023-08-24T13:12:14;6.97;;;3.70;;
14760;SDS011;7472;45.396;5.272;2023-08-24T13:14:41;10.32;;;3.63;;
14760;SDS011;7472;45.396;5.272;2023-08-24T13:17:09;6.88;;;4.50;;
14760;SDS011;7472;45.396;5.272;2023-08-24T13:19:36;7.97;;;4.10;;
14760;SDS011;7472;45.396;5.272;2023-08-24T13:22:04;6.55;;;3.83;;
14760;SDS011;7472;45.396;5.272;2023-08-24T13:24:33;8.27;;;4.38;;
14760;SDS011;7472;45.396;5.272;2023-08-24T13:27:01;5.38;;;3.80;;
14760;SDS011;7472;45.396;5.272;2023-08-24T13:29:29;7.80;;;4.60;;
14760;SDS011;7472;45.396;5.272;2023-08-24T13:31:56;6.22;;;3.85;;
14760;SDS011;7472;45.396;5.272;2023-08-24T13:34:23;9.52;;;4.05;;
14760;SDS011;7472;45.396;5.272;2023-08-24T13:36:51;12.38;;;4.28;;
14760;SDS011;7472;45.396;5.272;2023-08-24T13:39:18;6.53;;;4.55;;
14760;SDS011;7472;45.396;5.272;2023-08-24T13:41:45;8.45;;;4.72;;
14760;SDS011;7472;45.396;5.272;2023-08-24T13:44:14;10.52;;;4.50;;
14760;SDS011;7472;45.396;5.272;2023-08-24T13:46:42;11.98;;;3.80;;
14760;SDS011;7472;45.396;5.272;2023-08-24T13:49:09;9.50;;;4.60;;
14760;SDS011;7472;45.396;5.272;2023-08-24T13:51:36;5.32;;;4.57;;
14760;SDS011;7472;45.396;5.272;2023-08-24T13:54:11;4.22;;;3.72;;
14760;SDS011;7472;45.396;5.272;2023-08-24T13:56:39;4.72;;;3.97;;
14760;SDS011;7472;45.396;5.272;2023-08-24T13:59:06;7.00;;;3.70;;
14760;SDS011;7472;45.396;5.272;2023-08-24T14:01:35;7.85;;;4.30;;
14760;SDS011;7472;45.396;5.272;2023-08-24T14:04:02;8.85;;;4.28;;
14760;SDS011;7472;45.396;5.272;2023-08-24T14:06:30;6.07;;;4.13;;
14760;SDS011;7472;45.396;5.272;2023-08-24T14:08:58;8.75;;;4.45;;
14760;SDS011;7472;45.396;5.272;2023-08-24T14:11:26;7.60;;;3.67;;
14760;SDS011;7472;45.396;5.272;2023-08-24T14:13:53;6.93;;;4.40;;
14760;SDS011;7472;45.396;5.272;2023-08-24T14:16:20;6.03;;;4.35;;
14760;SDS011;7472;45.396;5.272;2023-08-24T14:18:49;7.05;;;4.15;;
14760;SDS011;7472;45.396;5.272;2023-08-24T14:21:17;6.63;;;4.00;;
14760;SDS011;7472;45.396;5.272;2023-08-24T14:23:45;8.90;;;4.38;;
14760;SDS011;7472;45.396;5.272;2023-08-24T14:26:12;7.70;;;4.32;;
14760;SDS011;7472;45.396;5.272;2023-08-24T14:28:49;6.32;;;4.55;;
14760;SDS011;7472;45.396;5.272;2023-08-24T14:31:18;6.47;;;4.45;;
14760;SDS011;7472;45.396;5.272;2023-08-24T14:33:46;8.07;;;4.57;;
14760;SDS011;7472;45.396;5.272;2023-08-24T14:36:15;8.00;;;4.50;;
14760;SDS011;7472;45.396;5.272;2023-08-24T14:38:42;6.30;;;4.30;;
14760;SDS011;7472;45.396;5.272;2023-08-24T14:41:10;7.75;;;4.20;;
14760;SDS011;7472;45.396;5.272;2023-08-24T14:43:38;9.48;;;4.07;;
14760;SDS011;7472;45.396;5.272;2023-08-24T14:46:06;4.75;;;4.25;;
14760;SDS011;7472;45.396;5.272;2023-08-24T14:48:33;6.72;;;4.20;;
14760;SDS011;7472;45.396;5.272;2023-08-24T14:51:01;8.82;;;4.53;;
14760;SDS011;7472;45.396;5.272;2023-08-24T14:53:30;5.85;;;4.40;;
14760;SDS011;7472;45.396;5.272;2023-08-24T14:55:57;10.25;;;5.15;;
14760;SDS011;7472;45.396;5.272;2023-08-24T14:58:25;10.10;;;4.65;;
14760;SDS011;7472;45.396;5.272;2023-08-24T15:00:54;10.40;;;4.60;;
14760;SDS011;7472;45.396;5.272;2023-08-24T15:03:22;9.07;;;4.65;;
14760;SDS011;7472;45.396;5.272;2023-08-24T15:05:56;8.18;;;4.50;;